Time;durP1;ratioP1;P1;durP2;ratioP2;P2;SDS_P1;SDS_P2;PMS_P1;PMS_P2;Temp;Humidity;BMP_temperature;BMP_pressure;BME280_temperature;BME280_humidity;BME280_pressure;Samples;Min_cycle;Max_cycle;Signal;HPM_P1;HPM_P2
2021/08/22 00:01:56;;;;;;;;;;;;;;;25.36;62.23;101016.06;5035510;28;1965;-54
2021/08/22 00:04:22;;;;;;;;;;;;;;;25.33;62.76;101011.00;5035482;28;1554;-54
2021/08/22 00:06:49;;;;;;;;;;;;;;;25.37;62.12;101022.34;5036295;28;1677;-54
2021/08/22 00:09:17;;;;;;;;;;;;;;;25.37;62.83;101028.59;5036029;28;1104;-54
2021/08/22 00:11:43;;;;;;;;;;;;;;;25.35;62.21;101014.38;5035364;28;1628;-54
2021/08/22 00:14:09;;;;;;;;;;;;;;;25.34;63.02;101017.25;5036046;28;1981;-54
2021/08/22 00:16:36;;;;;;;;;;;;;;;25.38;62.21;101019.44;5035777;28;1531;-54
2021/08/22 00:19:02;;;;;;;;;;;;;;;25.37;62.65;101023.19;5036754;28;1070;-54
2021/08/22 00:21:29;;;;;;;;;;;;;;;25.33;62.95;101011.00;5035878;28;1924;-54
2021/08/22 00:23:55;;;;;;;;;;;;;;;25.38;62.44;101015.88;5035576;28;1862;-54
2021/08/22 00:26:23;;;;;;;;;;;;;;;25.34;63.04;101011.84;5035564;28;1653;-54
2021/08/22 00:28:50;;;;;;;;;;;;;;;25.34;63.08;101014.53;5035596;28;1696;-54
2021/08/22 00:31:16;;;;;;;;;;;;;;;25.33;62.99;101005.59;5035482;28;1678;-54
2021/08/22 00:33:43;;;;;;;;;;;;;;;25.39;63.14;101031.13;5035890;28;1223;-54
2021/08/22 00:36:09;;;;;;;;;;;;;;;25.32;63.04;101014.72;5034883;28;1902;-54
2021/08/22 00:38:36;;;;;;;;;;;;;;;25.36;63.06;101026.88;5034955;28;1517;-54
2021/08/22 00:41:02;;;;;;;;;;;;;;;25.32;62.27;101016.56;5034660;28;1760;-54
2021/08/22 00:43:30;;;;;;;;;;;;;;;25.36;62.67;101029.59;5035540;28;1906;-53
2021/08/22 00:45:58;;;;;;;;;;;;;;;25.32;62.93;101017.41;5034998;28;2037;-54
2021/08/22 00:48:25;;;;;;;;;;;;;;;25.33;62.74;101024.53;5035695;28;1108;-54
2021/08/22 00:50:52;;;;;;;;;;;;;;;25.35;62.85;101030.63;5035223;28;1846;-54
2021/08/22 00:53:19;;;;;;;;;;;;;;;25.31;62.83;101025.72;5034870;28;1658;-54
2021/08/22 00:55:45;;;;;;;;;;;;;;;25.36;62.05;101032.28;5034356;28;1619;-54
2021/08/22 00:58:12;;;;;;;;;;;;;;;25.37;62.38;101030.47;5034213;28;1628;-54
2021/08/22 01:00:41;;;;;;;;;;;;;;;25.35;61.91;101022.50;5035044;28;1681;-54
2021/08/22 01:03:11;;;;;;;;;;;;;;;25.35;62.12;101027.06;5035025;28;1914;-54
2021/08/22 01:05:42;;;;;;;;;;;;;;;25.32;62.87;101030.94;5034739;28;1889;-54
2021/08/22 01:08:12;;;;;;;;;;;;;;;25.32;63.01;101032.81;5034059;28;1655;-54
2021/08/22 01:10:39;;;;;;;;;;;;;;;25.32;62.98;101030.13;5034344;28;1529;-54
2021/08/22 01:13:07;;;;;;;;;;;;;;;25.33;62.32;101038.06;5034797;28;1672;-54
2021/08/22 01:15:36;;;;;;;;;;;;;;;25.34;62.27;101034.34;5025556;28;1544;-54
2021/08/22 01:18:05;;;;;;;;;;;;;;;25.32;62.99;101030.94;5035484;28;1036;-54
2021/08/22 01:20:36;;;;;;;;;;;;;;;25.32;62.97;101025.53;5033222;28;1949;-54
2021/08/22 01:23:03;;;;;;;;;;;;;;;25.33;62.81;101026.41;5033718;28;1910;-54
2021/08/22 01:25:29;;;;;;;;;;;;;;;25.35;62.61;101018.97;5034122;28;1673;-54
2021/08/22 01:27:56;;;;;;;;;;;;;;;25.29;62.83;101025.91;5033939;28;1496;-54
2021/08/22 01:30:23;;;;;;;;;;;;;;;25.33;62.63;101043.47;5034441;28;1830;-54
2021/08/22 01:32:51;;;;;;;;;;;;;;;25.32;63.02;101030.94;5034749;28;951;-54
2021/08/22 01:35:19;;;;;;;;;;;;;;;25.34;63.15;101034.34;5034129;28;1894;-54
2021/08/22 01:37:46;;;;;;;;;;;;;;;25.33;62.17;101042.66;5034332;28;1744;-54
2021/08/22 01:40:14;;;;;;;;;;;;;;;25.33;62.83;101034.53;5025653;28;1930;-53
2021/08/22 01:42:42;;;;;;;;;;;;;;;25.32;62.94;101044.47;5034192;28;1981;-53
2021/08/22 01:45:10;;;;;;;;;;;;;;;25.34;61.95;101031.63;5033650;28;1742;-54
2021/08/22 01:47:37;;;;;;;;;;;;;;;25.30;62.49;101019.44;5034877;28;1051;-54
2021/08/22 01:50:06;;;;;;;;;;;;;;;25.30;63.02;101026.72;5033698;28;1746;-54
2021/08/22 01:52:33;;;;;;;;;;;;;;;25.29;62.84;101036.72;5024611;28;1762;-54
2021/08/22 01:55:01;;;;;;;;;;;;;;;25.29;62.77;101015.06;5033203;28;1467;-54
2021/08/22 01:57:28;;;;;;;;;;;;;;;25.29;62.84;101036.72;5033395;28;1552;-54
2021/08/22 01:59:54;;;;;;;;;;;;;;;25.29;63.11;101030.47;5034232;28;1166;-54
2021/08/22 02:02:21;;;;;;;;;;;;;;;25.31;62.13;101039.25;5144233;22;3811;-54
2021/08/22 02:04:48;;;;;;;;;;;;;;;25.29;62.64;101025.06;5051434;28;1629;-53
2021/08/22 02:07:18;;;;;;;;;;;;;;;25.30;62.49;101026.72;5053125;28;1986;-53
2021/08/22 02:09:49;;;;;;;;;;;;;;;25.33;62.06;101039.94;5047078;28;1764;-53
2021/08/22 02:12:17;;;;;;;;;;;;;;;25.29;62.99;101036.72;5060749;28;1674;-53
2021/08/22 02:14:45;;;;;;;;;;;;;;;25.32;61.94;101062.59;5063807;28;1085;-53
2021/08/22 02:17:12;;;;;;;;;;;;;;;25.28;62.86;101047.72;5058956;28;1898;-53
2021/08/22 02:19:40;;;;;;;;;;;;;;;25.32;62.82;101044.47;5066752;28;1832;-54
2021/08/22 02:22:07;;;;;;;;;;;;;;;25.28;61.97;101047.72;5059411;28;1906;-53
2021/08/22 02:24:35;;;;;;;;;;;;;;;25.30;62.46;101049.22;5060985;28;1480;-53
2021/08/22 02:27:02;;;;;;;;;;;;;;;25.28;62.18;101056.66;5063353;28;1097;-53
2021/08/22 02:29:28;;;;;;;;;;;;;;;25.28;62.78;101056.66;5057874;28;1968;-53
2021/08/22 02:31:55;;;;;;;;;;;;;;;25.29;62.97;101052.13;5057765;28;1793;-55
2021/08/22 02:34:21;;;;;;;;;;;;;;;25.29;62.07;101061.09;5068358;28;1685;-53
2021/08/22 02:36:48;;;;;;;;;;;;;;;25.28;62.76;101048.56;5060839;28;1705;-54
2021/08/22 02:39:14;;;;;;;;;;;;;;;25.31;62.41;101056.34;5063712;28;1076;-53
2021/08/22 02:41:42;;;;;;;;;;;;;;;25.28;62.64;101064.78;5052166;28;1748;-53
2021/08/22 02:44:09;;;;;;;;;;;;;;;25.28;62.20;101056.66;5051599;28;1956;-53
2021/08/22 02:46:35;;;;;;;;;;;;;;;25.28;63.08;101067.50;5054560;28;1675;-53
2021/08/22 02:49:02;;;;;;;;;;;;;;;25.24;63.02;101049.91;5070465;28;1039;-53
2021/08/22 02:51:28;;;;;;;;;;;;;;;25.25;63.13;101058.88;5057305;28;1968;-53
2021/08/22 02:53:54;;;;;;;;;;;;;;;25.26;62.38;101047.88;5053645;28;1618;-53
2021/08/22 02:56:21;;;;;;;;;;;;;;;25.25;62.28;101048.91;5054321;28;1656;-53
2021/08/22 02:58:49;;;;;;;;;;;;;;;25.21;62.19;101042.13;5056472;28;1932;-53
2021/08/22 03:01:15;;;;;;;;;;;;;;;25.25;62.58;101051.63;5054453;28;1542;-53
2021/08/22 03:03:42;;;;;;;;;;;;;;;25.27;62.29;101062.25;5067475;28;1909;-53
2021/08/22 03:06:08;;;;;;;;;;;;;;;25.25;62.94;101054.31;5057063;28;1850;-53
2021/08/22 03:08:35;;;;;;;;;;;;;;;25.23;62.90;101053.66;5059597;28;1525;-53
2021/08/22 03:11:01;;;;;;;;;;;;;;;25.25;63.14;101062.44;5056311;28;1845;-53
2021/08/22 03:13:27;;;;;;;;;;;;;;;25.24;62.89;101049.91;5054230;28;1695;-53
2021/08/22 03:15:55;;;;;;;;;;;;;;;25.24;62.46;101049.91;5056387;28;1665;-53
2021/08/22 03:18:22;;;;;;;;;;;;;;;25.22;62.29;101041.13;5052285;28;1048;-53
2021/08/22 03:20:48;;;;;;;;;;;;;;;25.22;62.88;101051.09;5054650;28;1712;-53
2021/08/22 03:23:15;;;;;;;;;;;;;;;25.24;63.16;101046.38;5058674;28;1902;-53
2021/08/22 03:25:41;;;;;;;;;;;;;;;25.25;62.89;101067.84;5055523;28;1643;-53
2021/08/22 03:28:08;;;;;;;;;;;;;;;25.23;63.10;101056.34;5054006;28;1691;-53
2021/08/22 03:30:34;;;;;;;;;;;;;;;25.27;62.38;101070.38;5048276;28;1525;-53
2021/08/22 03:33:02;;;;;;;;;;;;;;;25.24;62.90;101066.16;5063210;28;1042;-53
2021/08/22 03:35:28;;;;;;;;;;;;;;;25.22;62.89;101057.34;5062068;28;1578;-55
2021/08/22 03:37:55;;;;;;;;;;;;;;;25.24;63.01;101071.56;5059183;28;1650;-53
2021/08/22 03:40:21;;;;;;;;;;;;;;;25.19;62.99;101074.75;5056471;28;2031;-53
2021/08/22 03:42:48;;;;;;;;;;;;;;;25.20;63.12;101065.59;5051856;28;1971;-53
2021/08/22 03:45:14;;;;;;;;;;;;;;;25.23;62.25;101066.31;5057037;28;1664;-53
2021/08/22 03:47:41;;;;;;;;;;;;;;;25.23;62.27;101079.84;5056361;28;1083;-53
2021/08/22 03:50:10;;;;;;;;;;;;;;;25.23;62.31;101058.19;5051861;28;2383;-53
2021/08/22 03:52:36;;;;;;;;;;;;;;;25.22;63.22;101079.00;5052739;28;1554;-53
2021/08/22 03:55:03;;;;;;;;;;;;;;;25.20;62.10;101064.75;5057455;28;2253;-53
2021/08/22 03:57:29;;;;;;;;;;;;;;;25.21;62.58;101082.72;5050314;28;2062;-53
2021/08/22 03:59:56;;;;;;;;;;;;;;;25.22;62.38;101072.75;5051011;28;1688;-53
2021/08/22 04:02:23;;;;;;;;;;;;;;;25.24;63.01;101086.97;5061889;28;1323;-53
2021/08/22 04:04:49;;;;;;;;;;;;;;;25.21;62.91;101082.72;5053454;28;1968;-53
2021/08/22 04:07:17;;;;;;;;;;;;;;;25.21;62.12;101088.13;5060344;28;1548;-53
2021/08/22 04:09:44;;;;;;;;;;;;;;;25.18;62.70;101086.56;5046676;28;1648;-53
2021/08/22 04:12:10;;;;;;;;;;;;;;;25.24;62.38;101097.78;5063169;28;1624;-53
2021/08/22 04:14:38;;;;;;;;;;;;;;;25.23;62.64;101091.53;5066436;28;1139;-53
2021/08/22 04:17:04;;;;;;;;;;;;;;;25.20;62.62;101086.41;5054334;28;1643;-53
2021/08/22 04:19:31;;;;;;;;;;;;;;;25.20;62.63;101089.97;5056465;28;1778;-53
2021/08/22 04:21:58;;;;;;;;;;;;;;;25.19;62.03;101098.28;5063012;28;1605;-53
2021/08/22 04:24:25;;;;;;;;;;;;;;;25.22;62.92;101100.66;5054531;28;1906;-54
2021/08/22 04:26:52;;;;;;;;;;;;;;;25.24;62.20;101092.38;5055274;28;1830;-53
2021/08/22 04:29:19;;;;;;;;;;;;;;;25.25;62.60;101102.16;5053794;28;1430;-53
2021/08/22 04:31:46;;;;;;;;;;;;;;;25.24;62.93;101092.38;5055149;28;2099;-53
2021/08/22 04:34:12;;;;;;;;;;;;;;;25.23;62.24;101083.41;5054242;28;1771;-54
2021/08/22 04:36:39;;;;;;;;;;;;;;;25.27;62.18;101105.56;5065836;28;1166;-53
2021/08/22 04:39:05;;;;;;;;;;;;;;;25.27;62.06;101103.72;5054590;28;2094;-53
2021/08/22 04:41:33;;;;;;;;;;;;;;;25.29;62.84;101108.97;5054780;28;2120;-53
2021/08/22 04:43:59;;;;;;;;;;;;;;;25.22;62.96;101111.47;5052484;28;1910;-53
2021/08/22 04:46:26;;;;;;;;;;;;;;;25.25;62.61;101119.28;5061510;28;1756;-53
2021/08/22 04:48:52;;;;;;;;;;;;;;;25.26;61.99;101123.66;5071332;28;1109;-53
2021/08/22 04:51:19;;;;;;;;;;;;;;;25.28;62.60;101126.22;5055313;28;1723;-53
2021/08/22 04:53:45;;;;;;;;;;;;;;;25.25;62.94;101122.00;5053944;28;1703;-54
2021/08/22 04:56:12;;;;;;;;;;;;;;;25.28;62.02;101121.63;5053429;28;1513;-53
2021/08/22 04:58:40;;;;;;;;;;;;;;;25.25;62.39;101119.28;5053646;28;1576;-53
2021/08/22 05:01:09;;;;;;;;;;;;;;;25.28;62.90;101132.47;5052227;28;1749;-53
2021/08/22 05:03:35;;;;;;;;;;;;;;;25.25;62.58;101116.56;5054164;28;1985;-53
2021/08/22 05:06:02;;;;;;;;;;;;;;;25.27;62.55;101130.78;5056774;28;1879;-53
2021/08/22 05:08:28;;;;;;;;;;;;;;;25.26;62.28;101131.78;5061035;28;1740;-53
2021/08/22 05:10:55;;;;;;;;;;;;;;;25.33;62.63;101131.97;5057751;28;1765;-53
2021/08/22 05:13:22;;;;;;;;;;;;;;;25.24;62.80;101125.69;5057473;28;1753;-54
2021/08/22 05:15:50;;;;;;;;;;;;;;;25.30;61.83;101135.84;5062666;28;1714;-54
2021/08/22 05:18:17;;;;;;;;;;;;;;;25.32;62.58;101141.09;5062099;28;1127;-53
2021/08/22 05:20:44;;;;;;;;;;;;;;;25.34;61.92;101120.97;5056145;28;1816;-53
2021/08/22 05:23:10;;;;;;;;;;;;;;;25.34;62.45;101131.78;5058037;28;1981;-54
2021/08/22 05:25:37;;;;;;;;;;;;;;;25.31;62.64;101137.56;5052109;28;1944;-53
2021/08/22 05:28:03;;;;;;;;;;;;;;;25.29;62.80;101134.16;5055051;28;1615;-53
2021/08/22 05:30:30;;;;;;;;;;;;;;;25.31;62.53;101142.97;5058738;28;1715;-53
2021/08/22 05:32:57;;;;;;;;;;;;;;;25.29;62.13;101133.34;5064781;28;1130;-53
2021/08/22 05:35:24;;;;;;;;;;;;;;;25.34;62.78;101145.31;5065371;28;1897;-53
2021/08/22 05:37:50;;;;;;;;;;;;;;;25.30;62.81;101141.25;5060598;28;1569;-53
2021/08/22 05:40:17;;;;;;;;;;;;;;;25.27;62.27;101141.63;5056811;28;1496;-53
2021/08/22 05:42:43;;;;;;;;;;;;;;;25.29;62.69;101145.00;5052370;28;1632;-53
2021/08/22 05:45:10;;;;;;;;;;;;;;;25.32;61.84;101139.22;5059179;28;1977;-53
2021/08/22 05:47:37;;;;;;;;;;;;;;;25.29;62.57;101146.88;5053821;28;995;-53
2021/08/22 05:50:05;;;;;;;;;;;;;;;25.32;62.53;101150.06;5052175;28;1994;-53
2021/08/22 05:52:33;;;;;;;;;;;;;;;25.32;61.64;101155.47;5043133;28;2113;-54
2021/08/22 05:54:59;;;;;;;;;;;;;;;25.31;62.05;101163.78;5052529;28;1742;-53
2021/08/22 05:57:26;;;;;;;;;;;;;;;25.35;62.47;101160.56;5051767;28;1662;-53
2021/08/22 05:59:52;;;;;;;;;;;;;;;25.31;61.88;101144.84;5061675;28;1671;-55
2021/08/22 06:02:19;;;;;;;;;;;;;;;25.33;62.04;101159.06;5051676;28;1930;-53
2021/08/22 06:04:45;;;;;;;;;;;;;;;25.34;62.36;101145.31;5052447;28;1906;-53
2021/08/22 06:07:18;;;;;;;;;;;;;;;25.34;61.88;101169.69;5058592;28;1593;-53
2021/08/22 06:09:45;;;;;;;;;;;;;;;25.31;61.69;101152.97;5056429;28;1666;-53
2021/08/22 06:12:12;;;;;;;;;;;;;;;25.33;62.06;101162.59;5060547;28;1510;-54
2021/08/22 06:14:38;;;;;;;;;;;;;;;25.38;62.40;101159.38;5052164;28;1007;-53
2021/08/22 06:17:05;;;;;;;;;;;;;;;25.36;61.75;101148.69;5051121;28;1674;-53
2021/08/22 06:19:31;;;;;;;;;;;;;;;25.40;62.42;101154.63;5051015;28;1681;-55
2021/08/22 06:21:58;;;;;;;;;;;;;;;25.39;62.01;101159.22;5051054;28;1478;-53
2021/08/22 06:24:25;;;;;;;;;;;;;;;25.44;62.33;101156.00;5052134;28;1906;-55
2021/08/22 06:26:52;;;;;;;;;;;;;;;25.43;61.83;101148.91;5051611;28;1108;-53
2021/08/22 06:29:18;;;;;;;;;;;;;;;25.45;62.00;101148.75;5056427;28;1880;-53
2021/08/22 06:31:45;;;;;;;;;;;;;;;25.45;62.31;101146.88;5065636;28;1928;-53
2021/08/22 06:34:12;;;;;;;;;;;;;;;25.52;62.00;101149.72;5051990;28;1673;-53
2021/08/22 06:36:39;;;;;;;;;;;;;;;25.53;61.97;101154.16;5062624;28;1062;-53
2021/08/22 06:39:05;;;;;;;;;;;;;;;25.52;61.45;101149.72;5058008;28;1829;-53
2021/08/22 06:41:33;;;;;;;;;;;;;;;25.54;61.51;101150.41;5053565;28;2321;-53
2021/08/22 06:44:00;;;;;;;;;;;;;;;25.55;61.91;101160.25;5051601;28;1914;-53
2021/08/22 06:46:26;;;;;;;;;;;;;;;25.52;62.00;101157.84;5055042;28;1557;-53
2021/08/22 06:48:53;;;;;;;;;;;;;;;25.56;61.99;101161.91;5066181;28;1760;-53
2021/08/22 06:51:19;;;;;;;;;;;;;;;25.57;61.79;101155.50;5062708;28;1107;-55
2021/08/22 06:53:46;;;;;;;;;;;;;;;25.55;61.78;101157.53;5062720;28;1942;-54
2021/08/22 06:56:12;;;;;;;;;;;;;;;25.53;61.67;101146.03;5055730;28;1887;-53
2021/08/22 06:58:40;;;;;;;;;;;;;;;25.56;61.38;101148.38;5058642;28;1631;-53
2021/08/22 07:01:07;;;;;;;;;;;;;;;25.58;61.23;101146.34;5058960;28;1485;-53
2021/08/22 07:03:34;;;;;;;;;;;;;;;25.55;61.32;101154.81;5058697;28;1988;-53
2021/08/22 07:06:01;;;;;;;;;;;;;;;25.58;61.38;101149.06;5056770;28;2084;-53
2021/08/22 07:08:27;;;;;;;;;;;;;;;25.59;62.08;101151.59;5051130;28;1684;-54
2021/08/22 07:10:54;;;;;;;;;;;;;;;25.56;62.19;101162.75;5051265;28;1614;-53
2021/08/22 07:13:20;;;;;;;;;;;;;;;25.60;61.89;101163.25;5050126;28;1662;-53
2021/08/22 07:15:48;;;;;;;;;;;;;;;25.59;61.99;101156.19;5057799;28;1627;-53
2021/08/22 07:18:15;;;;;;;;;;;;;;;25.62;61.11;101133.31;5062557;28;1091;-53
2021/08/22 07:20:41;;;;;;;;;;;;;;;25.61;61.38;101151.44;5061237;28;1647;-54
2021/08/22 07:23:07;;;;;;;;;;;;;;;25.60;61.21;101158.72;5056061;28;1637;-53
2021/08/22 07:25:34;;;;;;;;;;;;;;;25.62;61.73;101150.41;5051274;28;1902;-54
2021/08/22 07:28:00;;;;;;;;;;;;;;;25.61;62.18;101159.56;5050419;28;1531;-53
2021/08/22 07:30:27;;;;;;;;;;;;;;;25.63;62.10;101160.22;5050632;28;1953;-53
2021/08/22 07:32:56;;;;;;;;;;;;;;;25.63;61.70;101157.53;5051780;28;1139;-53
2021/08/22 07:35:22;;;;;;;;;;;;;;;25.63;61.14;101162.94;5054826;28;1736;-53
2021/08/22 07:37:49;;;;;;;;;;;;;;;25.64;61.19;101159.19;5054849;28;1685;-53
2021/08/22 07:40:15;;;;;;;;;;;;;;;25.63;61.64;101143.97;5051130;28;1545;-53
2021/08/22 07:42:41;;;;;;;;;;;;;;;25.64;61.38;101161.06;5051789;28;1616;-53
2021/08/22 07:45:08;;;;;;;;;;;;;;;25.60;61.23;101142.47;5054630;28;1981;-53
2021/08/22 07:47:35;;;;;;;;;;;;;;;25.64;61.71;101155.66;5055778;28;987;-53
2021/08/22 07:50:03;;;;;;;;;;;;;;;25.67;61.95;101156.16;5057386;28;1896;-53
2021/08/22 07:52:30;;;;;;;;;;;;;;;25.64;61.96;101158.38;5058836;28;2151;-54
2021/08/22 07:54:56;;;;;;;;;;;;;;;25.60;61.59;101125.34;5053985;28;1678;-53
2021/08/22 07:57:23;;;;;;;;;;;;;;;25.67;61.23;101153.47;5057930;28;1590;-53
2021/08/22 07:59:49;;;;;;;;;;;;;;;25.66;61.17;101146.34;5063572;28;1667;-54
2021/08/22 08:02:15;;;;;;;;;;;;;;;25.65;61.54;101150.06;5066030;28;1941;-53
2021/08/22 08:04:42;;;;;;;;;;;;;;;25.69;61.30;101142.47;5055090;28;1911;-53
2021/08/22 08:07:10;;;;;;;;;;;;;;;25.68;61.56;101132.63;5064052;28;1556;-53
2021/08/22 08:09:36;;;;;;;;;;;;;;;25.67;62.19;101139.91;5063108;28;1678;-54
2021/08/22 08:12:03;;;;;;;;;;;;;;;25.67;61.47;101142.63;5062043;28;1475;-55
2021/08/22 08:14:29;;;;;;;;;;;;;;;25.71;61.17;101151.25;5056204;28;2108;-53
2021/08/22 08:16:56;;;;;;;;;;;;;;;25.68;61.59;101155.13;5059460;28;1784;-53
2021/08/22 08:19:22;;;;;;;;;;;;;;;25.71;61.44;101153.97;5073113;28;1925;-53
2021/08/22 08:21:49;;;;;;;;;;;;;;;25.68;61.94;101132.63;5065735;28;1575;-53
2021/08/22 08:24:17;;;;;;;;;;;;;;;25.68;61.21;101136.19;5066855;28;1909;-53
2021/08/22 08:26:43;;;;;;;;;;;;;;;25.70;61.26;101146.84;5055864;28;1830;-53
2021/08/22 08:29:10;;;;;;;;;;;;;;;25.71;61.84;101148.56;5053520;28;1724;-53
2021/08/22 08:31:36;;;;;;;;;;;;;;;25.70;61.48;101138.72;5058423;28;1735;-53
2021/08/22 08:34:03;;;;;;;;;;;;;;;25.69;61.80;101146.00;5073237;28;1178;-53
2021/08/22 08:36:29;;;;;;;;;;;;;;;25.68;61.76;101140.75;5066474;28;2058;-53
2021/08/22 08:38:56;;;;;;;;;;;;;;;25.74;61.44;101142.78;5058395;28;1755;-53
2021/08/22 08:41:23;;;;;;;;;;;;;;;25.72;61.38;101134.81;5061729;28;1843;-53
2021/08/22 08:43:50;;;;;;;;;;;;;;;25.70;62.06;101130.59;5059479;28;1671;-53
2021/08/22 08:46:17;;;;;;;;;;;;;;;25.71;61.26;101129.59;5055244;28;1902;-53
2021/08/22 08:48:45;;;;;;;;;;;;;;;25.73;61.26;101139.22;5055216;28;1004;-53
2021/08/22 08:51:16;;;;;;;;;;;;;;;25.69;62.19;101124.34;5054324;28;1682;-53
2021/08/22 08:53:44;;;;;;;;;;;;;;;25.71;61.39;101135.00;5057051;28;1569;-53
2021/08/22 08:56:10;;;;;;;;;;;;;;;25.69;61.54;101121.63;5058655;28;1755;-53
2021/08/22 08:58:38;;;;;;;;;;;;;;;25.74;61.26;101138.19;5055340;28;1786;-53
2021/08/22 09:01:04;;;;;;;;;;;;;;;25.71;61.55;101121.47;5058625;28;1949;-53
2021/08/22 09:03:31;;;;;;;;;;;;;;;25.74;61.43;101121.94;5063116;28;1448;-53
2021/08/22 09:06:25;;;;;;;;;;;;;;;25.74;61.29;101129.22;5058121;28;1961;-54
2021/08/22 09:09:09;;;;;;;;;;;;;;;25.70;61.67;101120.59;5055187;28;1842;-53
2021/08/22 09:11:56;;;;;;;;;;;;;;;25.70;62.30;101115.19;5056813;28;1803;-53
2021/08/22 09:14:38;;;;;;;;;;;;;;;25.72;61.42;101110.44;5055556;28;1889;-53
2021/08/22 09:17:22;;;;;;;;;;;;;;;25.71;61.85;101095.22;5052380;28;1967;-53
2021/08/22 09:20:06;;;;;;;;;;;;;;;25.68;61.49;101111.78;5055265;28;2145;-53
2021/08/22 09:22:56;;;;;;;;;;;;;;;25.70;62.08;101104.34;5056934;28;1736;-53
2021/08/22 09:25:41;;;;;;;;;;;;;;;25.72;61.70;101106.88;5054259;28;1909;-53
2021/08/22 09:28:26;;;;;;;;;;;;;;;25.71;61.33;101108.75;5052630;28;2022;-53
2021/08/22 09:31:19;;;;;;;;;;;;;;;25.71;61.45;101108.75;5051165;28;1825;-53
2021/08/22 09:34:04;;;;;;;;;;;;;;;25.75;61.35;101111.97;5059910;28;1017;-53
2021/08/22 09:36:52;;;;;;;;;;;;;;;25.77;62.29;101105.34;5060632;28;1857;-53
2021/08/22 09:39:43;;;;;;;;;;;;;;;25.74;61.61;101094.84;5064811;28;2453;-53
2021/08/22 09:42:28;;;;;;;;;;;;;;;25.74;62.13;101099.44;5061908;28;1748;-54
2021/08/22 09:45:15;;;;;;;;;;;;;;;25.73;62.16;101103.19;5053864;28;1979;-53
2021/08/22 09:48:08;;;;;;;;;;;;;;;25.77;61.54;101120.78;5063645;28;1034;-53
2021/08/22 09:50:53;;;;;;;;;;;;;;;25.76;61.75;101106.38;5054822;28;1974;-53
2021/08/22 09:53:38;;;;;;;;;;;;;;;25.73;61.44;101092.34;5057494;28;1679;-53
2021/08/22 09:56:23;;;;;;;;;;;;;;;25.77;61.74;101099.94;5062046;28;1825;-53
2021/08/22 09:59:13;;;;;;;;;;;;;;;25.76;61.26;101092.81;5061410;28;1861;-53
2021/08/22 10:02:07;;;;;;;;;;;;;;;25.77;61.52;101088.28;5052769;28;1829;-53
2021/08/22 10:04:46;;;;;;;;;;;;;;;25.76;62.01;101091.97;5039869;28;1966;-53
2021/08/22 10:07:21;;;;;;;;;;;;;;;25.79;61.51;101108.75;5057836;28;1660;-53
2021/08/22 10:09:50;;;;;;;;;;;;;;;25.76;62.39;101087.41;5051072;28;1447;-53
2021/08/22 10:12:17;;;;;;;;;;;;;;;25.77;62.31;101094.53;5062383;28;1653;-53
2021/08/22 10:14:45;;;;;;;;;;;;;;;25.76;61.69;101094.69;5054027;28;1003;-53
2021/08/22 10:17:17;;;;;;;;;;;;;;;25.76;61.62;101091.97;5060127;28;1871;-53
2021/08/22 10:19:45;;;;;;;;;;;;;;;25.76;61.69;101086.56;5070804;28;1934;-53
2021/08/22 10:22:13;;;;;;;;;;;;;;;25.74;62.30;101083.19;5061355;28;1752;-53
2021/08/22 10:24:46;;;;;;;;;;;;;;;25.78;62.20;101096.22;5062097;28;1906;-53
2021/08/22 10:27:40;;;;;;;;;;;;;;;25.77;62.21;101099.94;5060351;28;1592;-54
2021/08/22 10:30:12;;;;;;;;;;;;;;;25.74;62.30;101080.47;5048560;28;1646;-53
2021/08/22 10:32:53;;;;;;;;;;;;;;;25.76;61.39;101092.81;5064420;28;1055;-53
2021/08/22 10:35:21;;;;;;;;;;;;;;;25.76;61.48;101094.69;5062593;28;2027;-53
2021/08/22 10:37:48;;;;;;;;;;;;;;;25.77;61.55;101097.22;5055801;28;1765;-53
2021/08/22 10:40:33;;;;;;;;;;;;;;;25.76;61.73;101091.97;5050393;28;1698;-53
2021/08/22 10:43:15;;;;;;;;;;;;;;;25.71;61.80;101070.84;5049288;28;1544;-54
2021/08/22 10:45:46;;;;;;;;;;;;;;;25.76;62.27;101098.22;5046585;28;2252;-54
2021/08/22 10:48:33;;;;;;;;;;;;;;;25.77;62.18;101094.53;5062414;28;1158;-54
2021/08/22 10:51:09;;;;;;;;;;;;;;;25.78;62.39;101085.41;5056223;28;1956;-54
2021/08/22 10:53:37;;;;;;;;;;;;;;;25.80;61.60;101093.31;5060498;28;1473;-54
2021/08/22 10:56:30;;;;;;;;;;;;;;;25.79;61.39;101097.91;5057484;28;1479;-54
2021/08/22 10:59:05;;;;;;;;;;;;;;;25.78;61.51;101079.97;5056129;28;1734;-54
2021/08/22 11:01:33;;;;;;;;;;;;;;;25.81;61.88;101089.59;5060431;28;1580;-54
2021/08/22 11:04:03;;;;;;;;;;;;;;;25.80;61.35;101080.66;5070830;28;1217;-54
2021/08/22 11:06:29;;;;;;;;;;;;;;;25.82;61.26;101079.63;5053665;28;3015;-54
2021/08/22 11:08:56;;;;;;;;;;;;;;;25.82;61.42;101080.44;5056365;28;2046;-54
2021/08/22 11:11:22;;;;;;;;;;;;;;;25.79;61.60;101070.81;5059916;28;1971;-54
2021/08/22 11:13:52;;;;;;;;;;;;;;;25.80;61.33;101066.22;5057874;28;1717;-54
2021/08/22 11:16:19;;;;;;;;;;;;;;;25.81;61.30;101076.06;5051561;28;1457;-54
2021/08/22 11:18:47;;;;;;;;;;;;;;;25.79;61.44;101062.69;5054252;28;998;-54
2021/08/22 11:21:14;;;;;;;;;;;;;;;25.83;61.46;101068.59;5060421;28;1889;-54
2021/08/22 11:23:40;;;;;;;;;;;;;;;25.80;61.52;101064.41;5060964;28;1666;-54
2021/08/22 11:26:09;;;;;;;;;;;;;;;25.79;61.93;101070.81;5056253;28;1977;-54
2021/08/22 11:28:35;;;;;;;;;;;;;;;25.82;61.53;101058.78;5057442;28;1983;-54
2021/08/22 11:31:10;;;;;;;;;;;;;;;25.80;61.71;101048.13;5060695;28;1650;-54
2021/08/22 11:33:37;;;;;;;;;;;;;;;25.82;61.52;101060.66;5062822;28;1110;-54
2021/08/22 11:36:05;;;;;;;;;;;;;;;25.82;61.48;101063.34;5056557;28;1867;-54
2021/08/22 11:38:32;;;;;;;;;;;;;;;25.82;61.44;101064.19;5059179;28;1538;-54
2021/08/22 11:41:01;;;;;;;;;;;;;;;25.83;61.55;101055.06;5059709;28;1454;-54
2021/08/22 11:43:27;;;;;;;;;;;;;;;25.83;61.55;101056.94;5055219;28;1482;-54
2021/08/22 11:45:54;;;;;;;;;;;;;;;25.80;61.80;101058.97;5059817;28;1977;-54
2021/08/22 11:48:21;;;;;;;;;;;;;;;25.82;61.83;101064.19;5069189;28;1080;-54
2021/08/22 11:50:48;;;;;;;;;;;;;;;25.86;61.40;101067.41;5063019;28;1925;-54
2021/08/22 11:53:17;;;;;;;;;;;;;;;25.86;62.13;101052.00;5056113;28;1609;-54
2021/08/22 11:55:44;;;;;;;;;;;;;;;25.84;61.55;101062.16;5056585;28;1521;-54
2021/08/22 11:58:11;;;;;;;;;;;;;;;25.82;61.76;101036.25;5059221;28;1545;-54
2021/08/22 12:00:39;;;;;;;;;;;;;;;25.85;61.54;101058.44;5058777;28;1621;-55
2021/08/22 12:03:18;;;;;;;;;;;;;;;25.86;62.19;101051.16;5056680;28;1429;-54
2021/08/22 12:05:59;;;;;;;;;;;;;;;25.85;61.40;101057.59;5062301;28;1914;-54
2021/08/22 12:08:31;;;;;;;;;;;;;;;25.82;61.56;101047.09;5055568;28;1937;-54
2021/08/22 12:11:17;;;;;;;;;;;;;;;25.84;61.34;101051.31;5055614;28;1846;-54
2021/08/22 12:13:49;;;;;;;;;;;;;;;25.86;61.93;101056.56;5044088;28;1830;-54
2021/08/22 12:16:46;;;;;;;;;;;;;;;25.86;61.34;101053.84;5048104;28;1852;-54
2021/08/22 12:19:16;;;;;;;;;;;;;;;25.83;62.30;101041.53;5052013;28;1850;-54
2021/08/22 12:21:43;;;;;;;;;;;;;;;25.86;61.52;101054.69;5054104;28;1151;-54
2021/08/22 12:24:20;;;;;;;;;;;;;;;25.85;61.64;101057.59;5061386;28;1688;-54
2021/08/22 12:26:49;;;;;;;;;;;;;;;25.85;61.77;101052.19;5056781;28;1972;-54
2021/08/22 12:29:16;;;;;;;;;;;;;;;25.87;62.40;101047.44;5053865;28;1709;-54
2021/08/22 12:31:43;;;;;;;;;;;;;;;25.88;61.96;101041.81;5053793;28;1945;-54
2021/08/22 12:34:10;;;;;;;;;;;;;;;25.92;60.67;101036.94;5047594;28;1695;-55
2021/08/22 12:36:38;;;;;;;;;;;;;;;25.87;58.00;101039.31;5055312;28;1824;-54
2021/08/22 12:39:05;;;;;;;;;;;;;;;25.89;57.50;101027.28;5054823;28;1755;-54
2021/08/22 12:41:38;;;;;;;;;;;;;;;25.91;57.98;101043.38;5050770;28;1700;-54
2021/08/22 12:44:05;;;;;;;;;;;;;;;25.13;58.54;101036.72;5050217;28;1948;-54
2021/08/22 12:46:33;;;;;;;;;;;;;;;24.24;59.67;101024.72;5052313;28;1967;-55
2021/08/22 12:48:59;;;;;;;;;;;;;;;23.81;60.11;101036.34;5055270;28;1601;-54
2021/08/22 12:51:26;;;;;;;;;;;;;;;23.65;60.15;101038.06;5053651;28;1767;-54
2021/08/22 12:53:54;;;;;;;;;;;;;;;23.95;59.25;101031.34;5052932;28;1986;-54
2021/08/22 12:56:21;;;;;;;;;;;;;;;24.02;60.31;101032.38;5050896;28;1944;-54
2021/08/22 12:58:49;;;;;;;;;;;;;;;24.13;61.25;101015.03;5056400;28;1531;-53